Inukjuak, Canada
Current Conditions -  °F | °C
As of 5:00 PM on Thursday 27 Nov 2014 (Local Time) from CYPH Reporting Station
Moderate Snow Moderate Snow  
Wind Chill:   Ceiling: 3200
Heat Index: 19°   Visibility: 0.5mi
Dew Point: 16°   Wind: 28mph
Humidity: 86%   Direction: 230°SW
Pressure: 29.82"   Gusts: 38mph
Location:  58.46°N, 78.12°W
Report Text: CYPH 272200Z AUTO 23024G33KT 1/2SM SN FEW025 BKN032 OVC042 M07/M09 A2982 RMK SLP100
Loading
Personal Weather Stations






























Interactive Weather Map New forecast layout! Learn more

10-Day Weather Forecast

Advertisements
Track Severe Weather on mobile